createdAt,value
2018-01-13T00:00:50.250Z,86.68
2018-01-13T00:01:52.781Z,83.12
2018-01-13T00:02:55.279Z,75.07
2018-01-13T00:03:57.794Z,84.97
2018-01-13T00:05:00.306Z,92.10
2018-01-13T00:06:02.814Z,89.32
2018-01-13T00:07:06.090Z,85.97
2018-01-13T00:08:08.595Z,96.72
2018-01-13T00:09:11.081Z,85.20
2018-01-13T00:10:13.602Z,80.85
2018-01-13T00:11:16.114Z,82.95
2018-01-13T00:12:18.622Z,78.18
2018-01-13T00:13:21.140Z,78.00
2018-01-13T00:14:24.399Z,83.95
2018-01-13T00:15:26.904Z,74.87
2018-01-13T00:16:29.423Z,79.28
2018-01-13T00:17:31.950Z,79.18
2018-01-13T00:18:34.507Z,80.62
2018-01-13T00:19:37.779Z,74.10
2018-01-13T00:20:40.304Z,77.28
2018-01-13T00:21:42.871Z,72.12
2018-01-13T00:22:45.396Z,80.85
2018-01-13T00:23:48.026Z,74.80
2018-01-13T00:24:50.528Z,76.57
2018-01-13T00:25:53.015Z,71.80
2018-01-13T00:26:55.557Z,71.28
2018-01-13T00:27:58.068Z,80.62
2018-01-13T00:29:01.388Z,69.93
2018-01-13T00:30:03.954Z,71.57
2018-01-13T00:31:06.479Z,76.50
2018-01-13T00:32:09.000Z,72.60
2018-01-13T00:33:11.533Z,72.25
2018-01-13T00:34:14.054Z,81.57
2018-01-13T00:35:16.557Z,77.82
2018-01-13T00:36:19.068Z,80.18
2018-01-13T00:37:22.333Z,75.25
2018-01-13T00:38:24.944Z,80.95
2018-01-13T00:39:27.514Z,80.30
2018-01-13T00:40:30.029Z,73.97
2018-01-13T00:41:32.521Z,70.65
2018-01-13T00:42:35.019Z,78.80
2018-01-13T00:43:38.296Z,80.50
2018-01-13T00:44:41.554Z,75.55
2018-01-13T00:45:44.088Z,81.35
2018-01-13T00:46:46.602Z,87.55
2018-01-13T00:47:49.270Z,91.85
2018-01-13T00:48:51.782Z,87.90
2018-01-13T00:49:54.290Z,87.40
2018-01-13T00:50:56.782Z,87.65
2018-01-13T00:51:59.273Z,87.00
2018-01-13T00:53:02.553Z,86.93
2018-01-13T00:54:05.868Z,82.97
2018-01-13T00:55:08.362Z,82.88
2018-01-13T00:56:10.910Z,85.82
2018-01-13T00:57:13.484Z,80.65
2018-01-13T00:58:16.054Z,79.03
2018-01-13T00:59:18.573Z,82.18
2018-01-13T01:00:21.079Z,74.87
2018-01-13T01:01:24.343Z,71.43
2018-01-13T01:02:27.630Z,84.07
2018-01-13T01:03:30.938Z,82.62
2018-01-13T01:04:34.307Z,84.75
2018-01-13T01:05:36.854Z,73.55
2018-01-13T01:06:39.337Z,78.15
2018-01-13T01:07:41.830Z,78.70
2018-01-13T01:08:44.434Z,85.50
2018-01-13T01:09:47.010Z,77.93
2018-01-13T01:10:49.519Z,81.28
2018-01-13T01:11:52.029Z,73.97
2018-01-13T01:12:55.454Z,74.78
2018-01-13T01:13:57.937Z,78.78
2018-01-13T01:15:00.580Z,90.03
2018-01-13T01:16:03.074Z,78.53
2018-01-13T01:17:05.580Z,81.00
2018-01-13T01:18:08.189Z,87.43
2018-01-13T01:19:10.701Z,78.95
2018-01-13T01:20:13.228Z,76.62
2018-01-13T01:21:15.714Z,85.53
2018-01-13T01:22:18.204Z,81.50
2018-01-13T01:23:20.688Z,77.35
2018-01-13T01:24:23.177Z,75.12
2018-01-13T01:25:25.685Z,72.20
2018-01-13T01:26:28.419Z,86.63
2018-01-13T01:27:30.933Z,81.68
2018-01-13T01:28:33.438Z,80.03
2018-01-13T01:29:35.931Z,67.97
2018-01-13T01:30:38.546Z,87.57
2018-01-13T01:31:41.258Z,71.93
2018-01-13T01:32:44.225Z,84.68
2018-01-13T01:33:46.710Z,81.45
2018-01-13T01:34:49.220Z,70.75
2018-01-13T01:35:52.628Z,75.43
2018-01-13T01:36:55.136Z,86.63
2018-01-13T01:37:57.628Z,73.90
2018-01-13T01:39:00.239Z,72.50
2018-01-13T01:40:02.761Z,85.80
2018-01-13T01:41:05.309Z,79.60
2018-01-13T01:42:07.819Z,84.47
2018-01-13T01:43:10.350Z,81.18
2018-01-13T01:44:12.858Z,69.87
2018-01-13T01:45:15.371Z,82.30
2018-01-13T01:46:18.041Z,68.95
2018-01-13T01:47:20.563Z,68.03
2018-01-13T01:48:27.072Z,77.03
2018-01-13T01:49:29.611Z,75.95
2018-01-13T01:50:32.108Z,75.28
2018-01-13T01:51:34.670Z,76.57
2018-01-13T01:52:37.939Z,73.45
2018-01-13T01:53:41.202Z,76.32
2018-01-13T01:54:43.719Z,76.32
2018-01-13T01:55:47.018Z,84.62
2018-01-13T01:56:49.576Z,79.87
2018-01-13T01:57:52.866Z,86.47
2018-01-13T01:58:56.127Z,78.37
2018-01-13T01:59:58.623Z,71.75
2018-01-13T02:01:01.871Z,89.55
2018-01-13T02:02:04.393Z,79.30
2018-01-13T02:03:06.882Z,78.25
2018-01-13T02:04:09.434Z,78.15
2018-01-13T02:05:11.925Z,77.28
2018-01-13T02:06:14.446Z,72.82
2018-01-13T02:07:16.978Z,78.35
2018-01-13T02:08:19.525Z,73.50
2018-01-13T02:09:22.012Z,78.60
2018-01-13T02:10:24.556Z,88.90
2018-01-13T02:11:27.129Z,72.37
2018-01-13T02:12:29.666Z,76.22
2018-01-13T02:13:32.166Z,79.32
2018-01-13T02:14:34.697Z,81.72
2018-01-13T02:15:37.224Z,79.35
2018-01-13T02:16:39.734Z,92.55
2018-01-13T02:17:42.221Z,82.10
2018-01-13T02:18:45.538Z,72.78
2018-01-13T02:19:48.116Z,90.50
2018-01-13T02:20:50.618Z,76.75
2018-01-13T02:21:53.103Z,79.68
2018-01-13T02:22:55.618Z,82.75
2018-01-13T02:23:58.499Z,79.30
2018-01-13T02:25:01.073Z,81.45
2018-01-13T02:26:03.566Z,79.32
2018-01-13T02:27:06.108Z,85.18
2018-01-13T02:28:08.594Z,79.12
2018-01-13T02:29:11.151Z,83.20
2018-01-13T02:30:14.415Z,86.85
2018-01-13T02:31:17.672Z,89.15
2018-01-13T02:32:20.212Z,84.47
2018-01-13T02:33:22.706Z,83.32
2018-01-13T02:34:25.189Z,83.15
2018-01-13T02:35:27.704Z,91.32
2018-01-13T02:36:30.994Z,72.80
2018-01-13T02:37:33.569Z,84.82
2018-01-13T02:38:36.085Z,80.78
2018-01-13T02:39:38.629Z,92.00
2018-01-13T02:40:41.122Z,99.13
2018-01-13T02:41:43.626Z,91.05
2018-01-13T02:42:46.151Z,92.28
2018-01-13T02:43:49.418Z,89.70
2018-01-13T02:44:51.951Z,94.55
2018-01-13T02:45:54.447Z,96.65
2018-01-13T02:46:56.934Z,96.20
2018-01-13T02:47:59.439Z,83.60
2018-01-13T02:49:02.722Z,108.93
2018-01-13T02:50:05.999Z,86.15
2018-01-13T02:51:08.526Z,96.60
2018-01-13T02:52:11.049Z,98.12
2018-01-13T02:53:13.658Z,93.60
2018-01-13T02:54:16.142Z,92.00
2018-01-13T02:55:18.692Z,98.90
2018-01-13T02:56:21.215Z,98.87
2018-01-13T02:57:23.724Z,109.63
2018-01-13T02:58:27.025Z,105.32
2018-01-13T02:59:30.306Z,92.43
2018-01-13T03:00:33.608Z,96.57
2018-01-13T03:01:36.175Z,100.07
2018-01-13T03:02:38.696Z,98.82
2018-01-13T03:03:41.199Z,94.62
2018-01-13T03:04:44.484Z,110.35
2018-01-13T03:05:48.061Z,73.87
2018-01-13T03:06:50.567Z,90.97
2018-01-13T03:07:53.098Z,85.00
2018-01-13T03:08:55.714Z,90.55
2018-01-13T03:09:58.224Z,79.60
2018-01-13T03:11:00.810Z,79.57
2018-01-13T03:12:03.376Z,72.80
2018-01-13T03:13:05.862Z,91.85
2018-01-13T03:14:08.359Z,92.12
2018-01-13T03:15:11.644Z,77.05
2018-01-13T03:17:30.486Z,77.12
2018-01-13T03:18:32.970Z,76.30
2018-01-13T03:19:36.225Z,72.80
2018-01-13T03:20:38.723Z,73.15
2018-01-13T03:21:41.982Z,64.60
2018-01-13T03:22:44.498Z,74.30
2018-01-13T03:23:47.754Z,75.95
2018-01-13T03:24:50.255Z,78.22
2018-01-13T03:25:53.520Z,83.75
2018-01-13T03:26:56.124Z,78.65
2018-01-13T03:27:58.663Z,73.87
2018-01-13T03:29:01.275Z,76.95
2018-01-13T03:30:03.899Z,75.80
2018-01-13T03:31:06.394Z,75.15
2018-01-13T03:32:09.652Z,76.22
2018-01-13T03:33:12.170Z,81.20
2018-01-13T03:34:14.667Z,66.95
2018-01-13T03:35:17.216Z,78.60
2018-01-13T03:36:19.736Z,71.40
2018-01-13T03:37:22.241Z,63.53
2018-01-13T03:38:25.522Z,71.85
2018-01-13T03:39:28.794Z,64.62
2018-01-13T03:40:31.277Z,69.95
2018-01-13T03:41:33.880Z,65.20
2018-01-13T03:42:36.380Z,74.20
2018-01-13T03:43:38.922Z,77.57
2018-01-13T03:44:41.418Z,68.15
2018-01-13T03:45:43.911Z,68.82
2018-01-13T03:46:46.397Z,67.72
2018-01-13T03:47:48.927Z,59.28
2018-01-13T03:48:51.434Z,68.25
2018-01-13T03:49:53.925Z,61.80
2018-01-13T03:50:57.206Z,59.83
2018-01-13T03:52:00.519Z,55.45
2018-01-13T03:53:03.027Z,62.10
2018-01-13T03:54:05.523Z,55.67
2018-01-13T03:55:08.050Z,64.85
2018-01-13T03:56:10.557Z,61.28
2018-01-13T03:57:13.046Z,59.95
2018-01-13T03:58:16.340Z,52.05
2018-01-13T03:59:19.662Z,54.83
2018-01-13T04:00:22.179Z,58.78
2018-01-13T04:01:24.712Z,56.20
2018-01-13T04:02:27.211Z,54.50
2018-01-13T04:03:29.719Z,58.35
2018-01-13T04:04:32.216Z,56.75
2018-01-13T04:05:34.728Z,59.85
2018-01-13T04:06:37.236Z,57.75
2018-01-13T04:07:39.728Z,53.35
2018-01-13T04:08:42.220Z,55.25
2018-01-13T04:09:44.744Z,59.63
2018-01-13T04:10:47.259Z,64.28
2018-01-13T04:11:49.735Z,60.03
2018-01-13T04:12:52.262Z,61.63
2018-01-13T04:13:54.826Z,62.20
2018-01-13T04:14:57.328Z,60.42
2018-01-13T04:15:59.813Z,57.35
2018-01-13T04:17:02.314Z,55.47
2018-01-13T04:18:05.598Z,59.28
2018-01-13T04:19:08.194Z,65.45
2018-01-13T04:20:10.737Z,67.43
2018-01-13T04:21:13.253Z,63.63
2018-01-13T04:22:15.753Z,59.72
2018-01-13T04:23:18.280Z,70.35
2018-01-13T04:24:20.793Z,58.22
2018-01-13T04:25:23.319Z,60.67
2018-01-13T04:26:25.806Z,56.67
2018-01-13T04:27:28.295Z,63.10
2018-01-13T04:28:30.785Z,55.65
2018-01-13T04:29:33.278Z,58.75
2018-01-13T04:30:36.542Z,63.65
2018-01-13T04:31:39.075Z,61.58
2018-01-13T04:32:41.565Z,61.72
2018-01-13T04:33:44.061Z,57.58
2018-01-13T04:34:46.582Z,62.00
2018-01-13T04:35:49.070Z,59.05
2018-01-13T04:36:51.579Z,59.38
2018-01-13T04:37:54.831Z,60.38
2018-01-13T04:38:57.364Z,65.18
2018-01-13T04:39:59.895Z,62.58
2018-01-13T04:41:02.397Z,53.45
2018-01-13T04:42:04.919Z,58.35
2018-01-13T04:43:07.406Z,61.58
2018-01-13T04:44:09.917Z,55.38
2018-01-13T04:45:12.448Z,52.88
2018-01-13T04:46:14.983Z,54.80
2018-01-13T04:47:17.500Z,57.55
2018-01-13T04:48:20.022Z,61.20
2018-01-13T04:49:22.550Z,56.45
2018-01-13T04:50:25.823Z,59.97
2018-01-13T04:51:28.429Z,56.37
2018-01-13T04:52:30.950Z,58.80
2018-01-13T04:53:33.437Z,54.40
2018-01-13T04:54:35.926Z,58.22
2018-01-13T04:55:39.196Z,51.15
2018-01-13T04:56:42.455Z,45.78
2018-01-13T04:57:44.956Z,49.05
2018-01-13T04:58:47.454Z,54.03
2018-01-13T04:59:49.952Z,54.83
2018-01-13T05:00:52.465Z,54.88
2018-01-13T05:01:54.951Z,58.05
2018-01-13T05:02:58.234Z,46.63
2018-01-13T05:04:01.514Z,62.83
2018-01-13T05:05:04.059Z,46.63
2018-01-13T05:06:06.583Z,52.80
2018-01-13T05:07:09.090Z,51.83
2018-01-13T05:08:11.729Z,54.05
2018-01-13T05:09:14.227Z,50.45
2018-01-13T05:10:16.743Z,49.25
2018-01-13T05:11:20.092Z,58.00
2018-01-13T05:12:22.587Z,52.38
2018-01-13T05:13:25.115Z,57.90
2018-01-13T05:14:27.606Z,54.90
2018-01-13T05:15:30.139Z,51.08
2018-01-13T05:16:32.648Z,53.25
2018-01-13T05:17:35.148Z,55.17
2018-01-13T05:18:37.675Z,52.05
2018-01-13T05:19:40.162Z,51.15
2018-01-13T05:20:42.657Z,50.22
2018-01-13T05:21:45.924Z,57.45
2018-01-13T05:22:48.583Z,48.10
2018-01-13T05:23:51.091Z,58.15
2018-01-13T05:24:53.627Z,54.95
2018-01-13T05:25:56.150Z,52.88
2018-01-13T05:26:59.462Z,51.10
2018-01-13T05:28:01.943Z,54.53
2018-01-13T05:29:04.444Z,50.92
2018-01-13T05:30:06.923Z,44.88
2018-01-13T05:31:09.470Z,45.67
2018-01-13T05:32:11.957Z,54.42
2018-01-13T05:33:14.473Z,52.33
2018-01-13T05:34:16.973Z,49.40
2018-01-13T05:35:19.495Z,55.30
2018-01-13T05:36:22.762Z,52.92
2018-01-13T05:37:25.261Z,50.55
2018-01-13T05:38:28.513Z,51.72
2018-01-13T05:39:31.010Z,54.08
2018-01-13T05:40:34.271Z,48.05
2018-01-13T05:41:36.793Z,53.90
2018-01-13T05:42:39.294Z,51.28
2018-01-13T05:43:41.787Z,55.10
2018-01-13T05:44:44.299Z,49.58
2018-01-13T05:45:46.787Z,48.05
2018-01-13T05:46:49.344Z,54.85
2018-01-13T05:47:52.651Z,44.10
2018-01-13T05:48:55.141Z,65.35
2018-01-13T05:49:57.668Z,51.13
2018-01-13T05:51:00.194Z,46.45
2018-01-13T05:52:02.690Z,55.53
2018-01-13T05:53:05.939Z,55.72
2018-01-13T05:54:08.439Z,55.12
2018-01-13T05:55:10.980Z,49.10
2018-01-13T05:56:13.503Z,54.05
2018-01-13T05:57:16.102Z,61.58
2018-01-13T05:58:18.586Z,51.95
2018-01-13T05:59:21.081Z,60.58
2018-01-13T06:00:23.596Z,65.75
2018-01-13T06:01:26.107Z,55.10
2018-01-13T06:02:28.635Z,51.95
2018-01-13T06:03:31.120Z,61.72
2018-01-13T06:04:33.621Z,53.25
2018-01-13T06:05:36.125Z,57.08
2018-01-13T06:06:39.410Z,53.95
2018-01-13T06:07:42.663Z,62.70
2018-01-13T06:08:45.169Z,57.75
2018-01-13T06:09:48.430Z,61.35
2018-01-13T06:10:50.930Z,58.20
2018-01-13T06:11:54.213Z,57.35
2018-01-13T06:12:57.464Z,63.70
2018-01-13T06:13:59.960Z,53.42
2018-01-13T06:15:02.498Z,54.72
2018-01-13T06:16:05.032Z,52.95
2018-01-13T06:17:07.567Z,61.28
2018-01-13T06:18:10.151Z,54.08
2018-01-13T06:19:13.990Z,62.22
2018-01-13T06:20:16.477Z,60.10
2018-01-13T06:21:18.967Z,52.83
2018-01-13T06:22:21.586Z,59.45
2018-01-13T06:23:24.083Z,60.88
2018-01-13T06:24:26.575Z,59.67
2018-01-13T06:25:29.198Z,57.40
2018-01-13T06:26:31.732Z,66.30
2018-01-13T06:27:34.343Z,60.67
2018-01-13T06:28:36.916Z,61.53
2018-01-13T06:29:39.411Z,54.42
2018-01-13T06:30:41.930Z,57.72
2018-01-13T06:31:44.668Z,60.88
2018-01-13T06:32:47.171Z,58.80
2018-01-13T06:33:49.692Z,58.60
2018-01-13T06:34:52.193Z,54.03
2018-01-13T06:35:54.687Z,60.90
2018-01-13T06:36:57.211Z,53.28
2018-01-13T06:37:59.707Z,54.33
2018-01-13T06:39:02.223Z,57.72
2018-01-13T06:40:04.730Z,56.97
2018-01-13T06:41:07.284Z,56.28
2018-01-13T06:42:09.806Z,64.82
2018-01-13T06:43:12.308Z,53.90
2018-01-13T06:44:14.879Z,57.85
2018-01-13T06:45:17.405Z,60.97
2018-01-13T06:46:19.928Z,57.17
2018-01-13T06:47:23.419Z,60.08
2018-01-13T06:48:25.918Z,57.13
2018-01-13T06:49:28.422Z,59.33
2018-01-13T06:50:31.022Z,62.70
2018-01-13T06:51:33.521Z,67.85
2018-01-13T06:52:36.031Z,59.15
2018-01-13T06:53:38.527Z,61.40
2018-01-13T06:54:41.663Z,62.20
2018-01-13T06:55:44.188Z,56.95
2018-01-13T06:56:46.687Z,57.15
2018-01-13T06:57:49.195Z,67.90
2018-01-13T06:58:51.701Z,62.83
2018-01-13T06:59:54.332Z,64.40
2018-01-13T07:00:56.814Z,56.25
2018-01-13T07:02:01.354Z,65.93
2018-01-13T07:03:03.967Z,60.12
2018-01-13T07:04:07.283Z,66.72
2018-01-13T07:05:09.866Z,65.95
2018-01-13T07:06:12.550Z,59.15
2018-01-13T07:07:15.042Z,73.78
2018-01-13T07:08:17.534Z,64.53
2018-01-13T07:09:20.033Z,62.55
2018-01-13T07:10:22.556Z,64.28
2018-01-13T07:11:25.044Z,61.47
2018-01-13T07:12:27.541Z,60.88
2018-01-13T07:13:30.023Z,54.63
2018-01-13T07:14:32.513Z,59.67
2018-01-13T07:15:35.014Z,57.35
2018-01-13T07:16:37.504Z,56.83
2018-01-13T07:17:40.790Z,62.17
2018-01-13T07:18:43.295Z,62.38
2018-01-13T07:19:45.790Z,66.25
2018-01-13T07:20:48.300Z,67.60
2018-01-13T07:21:50.792Z,57.35
2018-01-13T07:22:53.275Z,68.15
2018-01-13T07:23:55.777Z,64.10
2018-01-13T07:24:58.270Z,60.75
2018-01-13T07:26:00.775Z,62.17
2018-01-13T07:27:03.279Z,67.22
2018-01-13T07:28:05.770Z,59.97
2018-01-13T07:29:08.277Z,55.80
2018-01-13T07:30:10.777Z,62.13
2018-01-13T07:31:13.285Z,55.63
2018-01-13T07:32:16.534Z,57.65
2018-01-13T07:33:19.034Z,63.03
2018-01-13T07:34:21.525Z,63.15
2018-01-13T07:35:24.034Z,58.17
2018-01-13T07:36:26.567Z,50.58
2018-01-13T07:37:29.076Z,56.45
2018-01-13T07:38:31.595Z,70.18
2018-01-13T07:39:34.094Z,65.45
2018-01-13T07:40:37.433Z,59.92
2018-01-13T07:41:39.946Z,57.75
2018-01-13T07:42:43.228Z,62.42
2018-01-13T07:43:45.715Z,61.00
2018-01-13T07:44:49.131Z,59.75
2018-01-13T07:45:51.695Z,56.28
2018-01-13T07:46:54.201Z,58.15
2018-01-13T07:47:56.713Z,55.25
2018-01-13T07:48:59.962Z,56.17
2018-01-13T07:50:02.464Z,54.58
2018-01-13T07:51:04.971Z,60.45
2018-01-13T07:52:07.496Z,50.78
2018-01-13T07:53:10.134Z,58.72
2018-01-13T07:54:12.641Z,52.40
2018-01-13T07:55:15.164Z,55.25
2018-01-13T07:56:17.811Z,52.40
2018-01-13T07:57:21.064Z,56.45
2018-01-13T07:58:25.114Z,53.80
2018-01-13T07:59:27.620Z,56.10
2018-01-13T08:00:30.156Z,51.63
2018-01-13T08:01:32.656Z,54.45
2018-01-13T08:02:35.156Z,49.22
2018-01-13T08:03:37.769Z,48.58
2018-01-13T08:04:40.261Z,61.20
2018-01-13T08:05:42.779Z,49.50
2018-01-13T08:06:45.294Z,45.78
2018-01-13T08:07:47.797Z,55.40
2018-01-13T08:08:50.318Z,49.50
2018-01-13T08:09:53.483Z,51.58
2018-01-13T08:10:56.792Z,45.67
2018-01-13T08:11:59.289Z,50.78
2018-01-13T08:13:01.778Z,55.40
2018-01-13T08:14:04.273Z,46.92
2018-01-13T08:15:06.773Z,44.08
2018-01-13T08:16:09.263Z,46.08
2018-01-13T08:17:11.789Z,47.38
2018-01-13T08:18:14.384Z,45.47
2018-01-13T08:19:16.901Z,47.50
2018-01-13T08:20:19.391Z,44.10
2018-01-13T08:21:21.896Z,53.50
2018-01-13T08:22:24.412Z,43.75
2018-01-13T08:23:26.935Z,41.30
2018-01-13T08:24:29.441Z,48.55
2018-01-13T08:25:31.958Z,44.85
2018-01-13T08:26:35.215Z,47.08
2018-01-13T08:27:37.733Z,43.55
2018-01-13T08:28:40.307Z,41.83
2018-01-13T08:29:42.877Z,44.42
2018-01-13T08:30:46.155Z,44.58
2018-01-13T08:31:48.667Z,48.03
2018-01-13T08:32:51.249Z,45.42
2018-01-13T08:33:54.527Z,43.45
2018-01-13T08:34:57.781Z,44.50
2018-01-13T08:36:00.335Z,46.10
2018-01-13T08:37:03.597Z,47.92
2018-01-13T08:38:06.104Z,45.38
2018-01-13T08:39:08.620Z,45.53
2018-01-13T08:40:11.125Z,38.22
2018-01-13T08:41:13.622Z,48.22
2018-01-13T08:42:16.122Z,47.20
2018-01-13T08:43:18.628Z,48.03
2018-01-13T08:44:21.121Z,44.67
2018-01-13T08:45:23.791Z,41.70
2018-01-13T08:46:26.345Z,42.10
2018-01-13T08:47:28.837Z,42.35
2018-01-13T08:48:31.326Z,40.55
2018-01-13T08:49:33.819Z,44.92
2018-01-13T08:50:36.348Z,41.85
2018-01-13T08:51:38.853Z,38.22
2018-01-13T08:52:41.470Z,39.78
2018-01-13T08:53:43.960Z,44.35
2018-01-13T08:54:46.484Z,41.47
2018-01-13T08:55:48.971Z,41.70
2018-01-13T08:56:52.276Z,41.00
2018-01-13T08:57:54.770Z,44.63
2018-01-13T08:58:57.262Z,38.47
2018-01-13T08:59:59.768Z,37.92
2018-01-13T09:01:03.053Z,42.08
2018-01-13T09:02:06.078Z,40.47
2018-01-13T09:03:08.591Z,35.78
2018-01-13T09:04:11.086Z,33.05
2018-01-13T09:05:14.385Z,36.03
2018-01-13T09:06:16.889Z,36.60
2018-01-13T09:07:19.381Z,38.80
2018-01-13T09:08:21.880Z,35.50
2018-01-13T09:09:25.289Z,38.25
2018-01-13T09:10:27.855Z,39.40
2018-01-13T09:11:30.362Z,35.88
2018-01-13T09:12:32.869Z,36.85
2018-01-13T09:13:36.135Z,42.05
2018-01-13T09:14:38.761Z,34.35
2018-01-13T09:15:41.271Z,42.13
2018-01-13T09:16:43.765Z,41.58
2018-01-13T09:17:46.296Z,31.42
2018-01-13T09:18:48.906Z,38.33
2018-01-13T09:19:51.424Z,36.05
2018-01-13T09:20:53.932Z,39.60
2018-01-13T09:21:56.418Z,36.97
2018-01-13T09:22:58.935Z,40.30
2018-01-13T09:24:01.430Z,32.35
2018-01-13T09:25:03.938Z,31.50
2018-01-13T09:26:07.209Z,34.55
2018-01-13T09:27:09.721Z,32.85
2018-01-13T09:28:12.229Z,34.78
2018-01-13T09:29:14.760Z,34.90
2018-01-13T09:30:17.262Z,34.88
2018-01-13T09:31:19.755Z,32.58
2018-01-13T09:32:22.278Z,29.77
2018-01-13T09:33:24.787Z,30.23
2018-01-13T09:34:27.412Z,35.22
2018-01-13T09:35:29.957Z,31.27
2018-01-13T09:36:33.273Z,33.65
2018-01-13T09:37:35.807Z,29.73
2018-01-13T09:38:38.413Z,30.12
2018-01-13T09:39:40.937Z,32.28
2018-01-13T09:40:43.434Z,26.42
2018-01-13T09:41:46.719Z,30.45
2018-01-13T09:42:49.229Z,37.40
2018-01-13T09:43:51.724Z,31.40
2018-01-13T09:44:54.230Z,31.92
2018-01-13T09:45:57.508Z,30.58
2018-01-13T09:47:00.832Z,27.50
2018-01-13T09:48:03.355Z,31.92
2018-01-13T09:49:05.855Z,30.10
2018-01-13T09:50:09.118Z,29.37
2018-01-13T09:51:13.133Z,33.40
2018-01-13T09:52:16.488Z,31.75
2018-01-13T09:53:19.821Z,27.20
2018-01-13T09:54:22.324Z,32.03
2018-01-13T09:55:24.896Z,27.75
2018-01-13T09:56:27.391Z,25.45
2018-01-13T09:57:29.874Z,28.25
2018-01-13T09:58:32.400Z,28.38
2018-01-13T09:59:34.904Z,27.05
2018-01-13T10:00:37.405Z,27.87
2018-01-13T10:01:40.670Z,28.02
2018-01-13T10:02:43.160Z,25.90
2018-01-13T10:03:45.715Z,35.85
2018-01-13T10:04:48.167Z,32.70
2018-01-13T10:05:50.674Z,30.30
2018-01-13T10:06:53.173Z,30.25
2018-01-13T10:07:55.710Z,29.23
2018-01-13T10:08:58.222Z,26.80
2018-01-13T10:10:00.743Z,28.20
2018-01-13T10:11:03.345Z,23.52
2018-01-13T10:12:06.604Z,31.98
2018-01-13T10:13:09.120Z,28.17
2018-01-13T10:14:11.632Z,29.17
2018-01-13T10:15:14.153Z,30.58
2018-01-13T10:16:17.436Z,32.85
2018-01-13T10:17:20.726Z,26.25
2018-01-13T10:18:23.981Z,31.02
2018-01-13T10:19:26.475Z,34.45
2018-01-13T10:20:29.780Z,29.67
2018-01-13T10:21:32.321Z,28.75
2018-01-13T10:22:34.949Z,31.25
2018-01-13T10:23:37.456Z,29.52
2018-01-13T10:24:39.949Z,24.65
2018-01-13T10:25:43.214Z,29.90
2018-01-13T10:26:45.744Z,30.52
2018-01-13T10:27:48.255Z,29.10
2018-01-13T10:28:50.872Z,29.70
2018-01-13T10:29:53.400Z,28.05
2018-01-13T10:30:57.439Z,31.05
2018-01-13T10:32:00.737Z,29.90
2018-01-13T10:33:03.238Z,28.90
2018-01-13T10:34:05.754Z,27.15
2018-01-13T10:35:09.044Z,27.40
2018-01-13T10:36:12.326Z,29.00
2018-01-13T10:37:14.874Z,28.75
2018-01-13T10:38:17.369Z,30.10
2018-01-13T10:39:19.969Z,30.27
2018-01-13T10:40:22.457Z,30.62
2018-01-13T10:41:25.011Z,26.35
2018-01-13T10:42:27.520Z,25.83
2018-01-13T10:43:30.031Z,30.92
2018-01-13T10:44:33.290Z,28.98
2018-01-13T10:45:35.810Z,27.30
2018-01-13T10:46:38.323Z,24.55
2018-01-13T10:47:40.841Z,29.85
2018-01-13T10:48:44.124Z,26.65
2018-01-13T10:49:47.405Z,25.98
2018-01-13T10:50:50.668Z,29.50
2018-01-13T10:51:53.154Z,30.33
2018-01-13T10:52:55.694Z,26.90
2018-01-13T10:53:58.201Z,29.02
2018-01-13T10:55:01.456Z,24.12
2018-01-13T10:56:03.952Z,24.60
2018-01-13T10:57:06.451Z,23.98
2018-01-13T10:58:08.979Z,27.62
2018-01-13T10:59:11.549Z,28.65
2018-01-13T11:00:14.025Z,24.80
2018-01-13T11:01:16.540Z,26.92
2018-01-13T11:02:19.036Z,26.95
2018-01-13T11:03:21.568Z,23.20
2018-01-13T11:04:24.847Z,25.45
2018-01-13T11:05:28.163Z,25.40
2018-01-13T11:06:30.657Z,25.48
2018-01-13T11:07:33.163Z,27.30
2018-01-13T11:08:35.681Z,25.60
2018-01-13T11:09:38.196Z,28.75
2018-01-13T11:10:41.476Z,23.58
2018-01-13T11:11:43.963Z,24.20
2018-01-13T11:12:46.565Z,27.73
2018-01-13T11:13:49.083Z,26.37
2018-01-13T11:14:51.586Z,25.62
2018-01-13T11:15:54.851Z,28.23
2018-01-13T11:16:57.465Z,26.60
2018-01-13T11:17:59.960Z,27.60
2018-01-13T11:19:02.472Z,27.87
2018-01-13T11:20:05.074Z,28.48
2018-01-13T11:21:07.581Z,30.42
2018-01-13T11:22:10.111Z,25.92
2018-01-13T11:23:13.416Z,30.45
2018-01-13T11:24:15.945Z,31.98
2018-01-13T11:25:18.550Z,26.70
2018-01-13T11:26:21.072Z,26.77
2018-01-13T11:27:23.570Z,33.35
2018-01-13T11:28:26.821Z,28.33
2018-01-13T11:29:29.316Z,25.27
2018-01-13T11:30:31.842Z,27.55
2018-01-13T11:31:34.373Z,29.35
2018-01-13T11:32:37.686Z,38.22
2018-01-13T11:33:40.483Z,30.65
2018-01-13T11:34:43.127Z,27.58
2018-01-13T11:35:45.636Z,28.27
2018-01-13T11:36:48.145Z,25.77
2018-01-13T11:37:51.402Z,28.67
2018-01-13T11:38:53.907Z,24.85
2018-01-13T11:39:57.153Z,24.15
2018-01-13T11:40:59.683Z,27.50
2018-01-13T11:42:02.199Z,25.05
2018-01-13T11:43:04.695Z,24.70
2018-01-13T11:44:07.971Z,29.45
2018-01-13T11:45:11.986Z,31.02
2018-01-13T11:46:14.507Z,28.38
2018-01-13T11:47:17.046Z,29.98
2018-01-13T11:48:20.310Z,26.77
2018-01-13T11:49:22.810Z,30.25
2018-01-13T11:50:26.083Z,27.98
2018-01-13T11:51:29.328Z,25.95
2018-01-13T11:52:31.857Z,28.27
2018-01-13T11:53:34.357Z,28.30
2018-01-13T11:54:36.896Z,31.17
2018-01-13T11:55:40.173Z,32.90
2018-01-13T11:56:42.672Z,31.58
2018-01-13T11:57:45.196Z,29.30
2018-01-13T11:58:48.481Z,29.92
2018-01-13T11:59:50.994Z,29.67
2018-01-13T12:00:53.495Z,33.05
2018-01-13T12:01:56.007Z,31.65
2018-01-13T12:02:59.276Z,28.27
2018-01-13T12:04:01.778Z,27.87
2018-01-13T12:05:05.085Z,26.10
2018-01-13T12:06:07.582Z,35.95
2018-01-13T12:07:10.133Z,29.10
2018-01-13T12:08:12.676Z,32.63
2018-01-13T12:09:15.189Z,27.95
2018-01-13T12:10:17.700Z,28.67
2018-01-13T12:11:20.223Z,27.77
2018-01-13T12:12:22.738Z,24.55
2018-01-13T12:13:25.283Z,24.67
2018-01-13T12:14:27.791Z,27.87
2018-01-13T12:15:31.044Z,25.50
2018-01-13T12:16:33.543Z,29.12
2018-01-13T12:17:36.042Z,26.20
2018-01-13T12:18:38.824Z,24.77
2018-01-13T12:19:41.326Z,24.33
2018-01-13T12:20:43.827Z,26.52
2018-01-13T12:21:46.322Z,26.58
2018-01-13T12:22:49.431Z,24.37
2018-01-13T12:23:51.941Z,29.17
2018-01-13T12:24:55.209Z,21.73
2018-01-13T12:25:57.706Z,26.92
2018-01-13T12:27:00.318Z,23.73
2018-01-13T12:28:02.811Z,26.62
2018-01-13T12:29:05.327Z,24.02
2018-01-13T12:30:08.604Z,23.50
2018-01-13T12:31:11.112Z,26.50
2018-01-13T12:32:13.637Z,26.50
2018-01-13T12:33:16.156Z,25.62
2018-01-13T12:34:18.672Z,22.02
2018-01-13T12:35:21.194Z,25.73
2018-01-13T12:36:23.706Z,25.90
2018-01-13T12:37:26.212Z,30.40
2018-01-13T12:38:29.491Z,28.95
2018-01-13T12:39:31.991Z,24.95
2018-01-13T12:40:34.509Z,31.45
2018-01-13T12:41:37.012Z,29.52
2018-01-13T12:42:40.259Z,25.88
2018-01-13T12:43:42.797Z,25.60
2018-01-13T12:44:45.291Z,30.27
2018-01-13T12:45:47.783Z,32.45
2018-01-13T12:46:50.300Z,25.60
2018-01-13T12:47:52.786Z,20.67
2018-01-13T12:48:55.304Z,22.00
2018-01-13T12:49:57.809Z,26.23
2018-01-13T12:51:00.307Z,22.50
2018-01-13T12:52:02.826Z,19.67
2018-01-13T12:53:06.100Z,24.45
2018-01-13T12:54:08.616Z,23.60
2018-01-13T12:55:11.122Z,25.95
2018-01-13T12:56:13.619Z,23.50
2018-01-13T12:57:16.153Z,22.85
2018-01-13T12:58:18.643Z,24.40
2018-01-13T12:59:21.260Z,21.98
2018-01-13T13:00:23.758Z,25.40
2018-01-13T13:01:26.252Z,23.45
2018-01-13T13:02:28.870Z,19.55
2018-01-13T13:03:31.420Z,23.33
2018-01-13T13:04:34.678Z,21.08
2018-01-13T13:05:37.190Z,27.35
2018-01-13T13:06:40.451Z,21.65
2018-01-13T13:07:44.464Z,23.17
2018-01-13T13:08:46.997Z,23.70
2018-01-13T13:09:50.265Z,26.90
2018-01-13T13:10:52.761Z,27.40
2018-01-13T13:11:55.291Z,24.95
2018-01-13T13:12:57.806Z,28.15
2018-01-13T13:14:00.315Z,26.67
2018-01-13T13:15:03.595Z,24.60
2018-01-13T13:16:06.104Z,28.20
2018-01-13T13:17:08.597Z,23.48
2018-01-13T13:18:11.086Z,25.98
2018-01-13T13:19:13.648Z,26.00
2018-01-13T13:20:16.150Z,24.67
2018-01-13T13:21:19.404Z,24.48
2018-01-13T13:22:21.913Z,23.33
2018-01-13T13:23:25.236Z,23.98
2018-01-13T13:24:27.715Z,21.87
2018-01-13T13:25:30.273Z,27.90
2018-01-13T13:26:32.789Z,24.80
2018-01-13T13:27:35.293Z,20.70
2018-01-13T13:28:38.700Z,23.45